Observation data for Sundown on 09/12/2017      Previous  Date       Current Mesonet Observations  Soil Data  Daily Summary Page  Observations in Plain Language
KSDS 120500Z 18004KT 18/09 A3016 RMK A01 T01750092  RH  059%=      5-min Rain = 0
KSDS 120505Z 19004KT 17/09 A3016 RMK A01 T01740091  RH  059%=      5-min Rain = 0
KSDS 120510Z 19005KT 17/09 A3016 RMK A01 T01720091  RH  060%=      5-min Rain = 0
KSDS 120515Z 19005KT 17/09 A3016 RMK A01 T01720091  RH  060%=      5-min Rain = 0
KSDS 120520Z 19005KT 17/09 A3015 RMK A01 T01720091  RH  059%=      5-min Rain = 0
KSDS 120525Z 20005KT 17/09 A3015 RMK A01 T01730091  RH  059%=      5-min Rain = 0
KSDS 120530Z 20005KT 17/09 A3015 RMK A01 T01720090  RH  059%=      5-min Rain = 0
KSDS 120535Z 21005KT 17/09 A3015 RMK A01 T01710090  RH  060%=      5-min Rain = 0
KSDS 120540Z 21005KT 17/09 A3015 RMK A01 T01710090  RH  060%=      5-min Rain = 0
KSDS 120545Z 22005KT 17/09 A3015 RMK A01 T01700090  RH  060%=      5-min Rain = 0
KSDS 120550Z 22006KT 16/09 A3015 RMK A01 T01640089  RH  062%=      5-min Rain = 0
KSDS 120555Z 22006KT 16/09 A3015 RMK A01 T01640090  RH  063%=      5-min Rain = 0
KSDS 120600Z 23006KT 16/09 A3015 RMK A01 T01640090  RH  063%=      5-min Rain = 0
KSDS 120605Z 22005KT 16/09 A3015 RMK A01 T01620091  RH  063%=      5-min Rain = 0
KSDS 120610Z 22006KT 17/09 A3015 RMK A01 T01660091  RH  062%=      5-min Rain = 0
KSDS 120615Z 22006KT 17/09 A3014 RMK A01 T01650090  RH  062%=      5-min Rain = 0
KSDS 120620Z 22006KT 16/09 A3014 RMK A01 T01630090  RH  063%=      5-min Rain = 0
KSDS 120625Z 23006KT 16/09 A3014 RMK A01 T01630091  RH  063%=      5-min Rain = 0
KSDS 120630Z 23006KT 16/09 A3014 RMK A01 T01630091  RH  063%=      5-min Rain = 0
KSDS 120635Z 23007KT 16/09 A3014 RMK A01 T01600091  RH  065%=      5-min Rain = 0
KSDS 120640Z 24007KT 16/09 A3013 RMK A01 T01590092  RH  065%=      5-min Rain = 0
KSDS 120645Z 25007KT 16/09 A3013 RMK A01 T01580092  RH  066%=      5-min Rain = 0
KSDS 120650Z 24006KT 16/09 A3013 RMK A01 T01580092  RH  066%=      5-min Rain = 0
KSDS 120655Z 25006KT 16/09 A3013 RMK A01 T01580092  RH  066%=      5-min Rain = 0
KSDS 120700Z 25006KT 16/09 A3013 RMK A01 T01570092  RH  066%=      5-min Rain = 0
KSDS 120705Z 25006KT 16/09 A3013 RMK A01 T01550092  RH  067%=      5-min Rain = 0
KSDS 120710Z 24005KT 16/09 A3013 RMK A01 T01550092  RH  067%=      5-min Rain = 0
KSDS 120715Z 23005KT 16/09 A3013 RMK A01 T01560092  RH  067%=      5-min Rain = 0
KSDS 120720Z 24005KT 16/09 A3013 RMK A01 T01560092  RH  067%=      5-min Rain = 0
KSDS 120725Z 25005KT 15/09 A3013 RMK A01 T01540092  RH  067%=      5-min Rain = 0
KSDS 120730Z 26005KT 15/09 A3013 RMK A01 T01510091  RH  069%=      5-min Rain = 0
KSDS 120735Z 26006KT 15/09 A3013 RMK A01 T01490091  RH  069%=      5-min Rain = 0
KSDS 120740Z 26006KT 15/09 A3013 RMK A01 T01500091  RH  069%=      5-min Rain = 0
KSDS 120745Z 25006KT 15/09 A3013 RMK A01 T01510091  RH  069%=      5-min Rain = 0
KSDS 120750Z 25006KT 15/09 A3013 RMK A01 T01510091  RH  068%=      5-min Rain = 0
KSDS 120755Z 25006KT 15/09 A3012 RMK A01 T01500091  RH  069%=      5-min Rain = 0
KSDS 120800Z 20005KT 15/09 A3013 RMK A01 T01480090  RH  069%=      5-min Rain = 0
KSDS 120805Z 14003KT 16/09 A3013 RMK A01 T01600090  RH  064%=      5-min Rain = 0
KSDS 120810Z 17002KT 16/09 A3012 RMK A01 T01600090  RH  064%=      5-min Rain = 0
KSDS 120815Z 21002KT 16/09 A3012 RMK A01 T01560090  RH  066%=      5-min Rain = 0
KSDS 120820Z 21002KT 16/09 A3012 RMK A01 T01570090  RH  065%=      5-min Rain = 0
KSDS 120825Z 22003KT 16/09 A3012 RMK A01 T01580090  RH  065%=      5-min Rain = 0
KSDS 120830Z 15002KT 15/09 A3012 RMK A01 T01540089  RH  066%=      5-min Rain = 0
KSDS 120835Z 22003KT 16/09 A3012 RMK A01 T01580090  RH  065%=      5-min Rain = 0
KSDS 120840Z 25004KT 16/09 A3012 RMK A01 T01620089  RH  063%=      5-min Rain = 0
KSDS 120845Z 26004KT 15/09 A3012 RMK A01 T01520087  RH  066%=      5-min Rain = 0
KSDS 120850Z 26004KT 15/09 A3012 RMK A01 T01450087  RH  069%=      5-min Rain = 0
KSDS 120855Z 26004KT 14/09 A3012 RMK A01 T01430088  RH  071%=      5-min Rain = 0
KSDS 120900Z 26003KT 14/09 A3012 RMK A01 T01440088  RH  070%=      5-min Rain = 0
KSDS 120905Z 27004KT 14/09 A3012 RMK A01 T01410087  RH  071%=      5-min Rain = 0
KSDS 120910Z 27003KT 14/09 A3012 RMK A01 T01410087  RH  071%=      5-min Rain = 0
KSDS 120915Z 27004KT 14/09 A3012 RMK A01 T01430087  RH  070%=      5-min Rain = 0
KSDS 120920Z 27004KT 14/09 A3011 RMK A01 T01410087  RH  071%=      5-min Rain = 0
KSDS 120925Z 28004KT 14/09 A3011 RMK A01 T01410087  RH  071%=      5-min Rain = 0
KSDS 120930Z 28004KT 14/09 A3011 RMK A01 T01420086  RH  070%=      5-min Rain = 0
KSDS 120935Z 28004KT 14/09 A3011 RMK A01 T01410086  RH  071%=      5-min Rain = 0
KSDS 120940Z 28005KT 14/09 A3011 RMK A01 T01370085  RH  072%=      5-min Rain = 0
KSDS 120945Z 27005KT 13/09 A3011 RMK A01 T01340086  RH  074%=      5-min Rain = 0
KSDS 120950Z 27006KT 14/09 A3011 RMK A01 T01360086  RH  073%=      5-min Rain = 0
KSDS 120955Z 28006KT 13/09 A3011 RMK A01 T01330085  RH  074%=      5-min Rain = 0
KSDS 121000Z 29005KT 13/09 A3011 RMK A01 T01300085  RH  076%=      5-min Rain = 0
KSDS 121005Z 29005KT 13/09 A3011 RMK A01 T01320086  RH  075%=      5-min Rain = 0
KSDS 121010Z 30005KT 13/09 A3011 RMK A01 T01320086  RH  074%=      5-min Rain = 0
KSDS 121015Z 30005KT 13/09 A3011 RMK A01 T01310086  RH  075%=      5-min Rain = 0
KSDS 121020Z 30006KT 13/09 A301 RMK A01 T01300086  RH  076%=      5-min Rain = 0
KSDS 121025Z 30005KT 13/09 A301 RMK A01 T01270086  RH  077%=      5-min Rain = 0
KSDS 121030Z 30006KT 13/09 A3011 RMK A01 T01260085  RH  077%=      5-min Rain = 0
KSDS 121035Z 30006KT 13/09 A3011 RMK A01 T01260086  RH  078%=      5-min Rain = 0
KSDS 121040Z 30006KT 13/09 A301 RMK A01 T01260086  RH  078%=      5-min Rain = 0
KSDS 121045Z 31006KT 13/09 A301 RMK A01 T01260087  RH  078%=      5-min Rain = 0
KSDS 121050Z 31006KT 13/09 A301 RMK A01 T01260087  RH  078%=      5-min Rain = 0
KSDS 121055Z 31006KT 13/09 A301 RMK A01 T01260087  RH  078%=      5-min Rain = 0
KSDS 121100Z 31007KT 13/09 A3011 RMK A01 T01260087  RH  078%=      5-min Rain = 0
KSDS 121105Z 31007KT 12/09 A3011 RMK A01 T01240086  RH  079%=      5-min Rain = 0
KSDS 121110Z 31006KT 12/09 A3011 RMK A01 T01240087  RH  079%=      5-min Rain = 0
KSDS 121115Z 31007KT 13/09 A3011 RMK A01 T01270088  RH  079%=      5-min Rain = 0
KSDS 121120Z 31006KT 13/09 A3011 RMK A01 T01270088  RH  078%=      5-min Rain = 0
KSDS 121125Z 32006KT 13/09 A301 RMK A01 T01260088  RH  079%=      5-min Rain = 0
KSDS 121130Z 32006KT 13/09 A301 RMK A01 T01250088  RH  079%=      5-min Rain = 0
KSDS 121135Z 32006KT 13/09 A301 RMK A01 T01260088  RH  079%=      5-min Rain = 0
KSDS 121140Z 32006KT 13/09 A301 RMK A01 T01300089  RH  077%=      5-min Rain = 0
KSDS 121145Z 32006KT 13/09 A301 RMK A01 T01300088  RH  077%=      5-min Rain = 0
KSDS 121150Z 32006KT 13/09 A301 RMK A01 T01280087  RH  078%=      5-min Rain = 0
KSDS 121155Z 32006KT 13/09 A301 RMK A01 T01250087  RH  079%=      5-min Rain = 0
KSDS 121200Z 33006KT 13/09 A301 RMK A01 T01250087  RH  078%=      5-min Rain = 0
KSDS 121205Z 33006KT 13/09 A301 RMK A01 T01270087  RH  078%=      5-min Rain = 0
KSDS 121210Z 32006KT 13/09 A301 RMK A01 T01260086  RH  078%=      5-min Rain = 0
KSDS 121215Z 31006KT 12/09 A301 RMK A01 T01230085  RH  079%=      5-min Rain = 0
KSDS 121220Z 32006KT 12/09 A301 RMK A01 T01210085  RH  080%=      5-min Rain = 0
KSDS 121225Z 32007KT 12/09 A301 RMK A01 T01200085  RH  081%=      5-min Rain = 0
KSDS 121230Z 32007KT 12/09 A301 RMK A01 T01200085  RH  081%=      5-min Rain = 0
KSDS 121235Z 32007KT 12/09 A301 RMK A01 T01200086  RH  081%=      5-min Rain = 0
KSDS 121240Z 32007KT 12/09 A301 RMK A01 T01230087  RH  080%=      5-min Rain = 0
KSDS 121245Z 32007KT 13/09 A301 RMK A01 T01250087  RH  079%=      5-min Rain = 0
KSDS 121250Z 32007KT 12/09 A301 RMK A01 T01240086  RH  079%=      5-min Rain = 0
KSDS 121255Z 32006KT 13/09 A301 RMK A01 T01260087  RH  079%=      5-min Rain = 0
KSDS 121300Z 33005KT 13/09 A3011 RMK A01 T01280088  RH  078%=      5-min Rain = 0
KSDS 121305Z 33005KT 13/09 A3011 RMK A01 T01300089  RH  078%=      5-min Rain = 0
KSDS 121310Z 33005KT 13/09 A3011 RMK A01 T01340090  RH  076%=      5-min Rain = 0
KSDS 121315Z 32004KT 14/09 A3011 RMK A01 T01380091  RH  075%=      5-min Rain = 0
KSDS 121320Z 32004KT 14/09 A3011 RMK A01 T01430093  RH  073%=      5-min Rain = 0
KSDS 121325Z 33004KT 15/09 A3011 RMK A01 T01480094  RH  071%=      5-min Rain = 0
KSDS 121330Z 33004KT 15/09 A3011 RMK A01 T01530094  RH  069%=      5-min Rain = 0
KSDS 121335Z 34004KT 16/09 A3011 RMK A01 T01570094  RH  067%=      5-min Rain = 0
KSDS 121340Z 35004KT 16/10 A3011 RMK A01 T01640096  RH  065%=      5-min Rain = 0
KSDS 121345Z 34003KT 17/10 A3011 RMK A01 T01700097  RH  063%=      5-min Rain = 0
KSDS 121350Z 32004KT 18/10 A3011 RMK A01 T01760095  RH  060%=      5-min Rain = 0
KSDS 121355Z 32003KT 18/10 A3011 RMK A01 T01800095  RH  059%=      5-min Rain = 0
KSDS 121400Z 33003KT 19/10 A3011 RMK A01 T01850096  RH  057%=      5-min Rain = 0
KSDS 121405Z 34002KT 19/10 A3011 RMK A01 T01900096  RH  055%=      5-min Rain = 0
KSDS 121410Z 33002KT 19/10 A3011 RMK A01 T01940097  RH  054%=      5-min Rain = 0
KSDS 121415Z 31003KT 20/10 A3011 RMK A01 T02010098  RH  052%=      5-min Rain = 0
KSDS 121420Z 31002KT 21/10 A3012 RMK A01 T02050099  RH  051%=      5-min Rain = 0
KSDS 121425Z 30003KT 21/10 A3011 RMK A01 T02120099  RH  049%=      5-min Rain = 0
KSDS 121430Z 31003KT 22/10 A3011 RMK A01 T02170101  RH  048%=      5-min Rain = 0
KSDS 121435Z 31004KT 22/10 A3012 RMK A01 T02220099  RH  046%=      5-min Rain = 0
KSDS 121440Z 31004KT 23/10 A3012 RMK A01 T02250099  RH  046%=      5-min Rain = 0
KSDS 121445Z 31004KT 23/10 A3012 RMK A01 T02320099  RH  044%=      5-min Rain = 0
KSDS 121450Z 32004KT 24/10 A3012 RMK A01 T02350100  RH  043%=      5-min Rain = 0
KSDS 121455Z 32005KT 24/10 A3012 RMK A01 T02360098  RH  042%=      5-min Rain = 0
KSDS 121500Z 31004KT 24/10 A3011 RMK A01 T02400097  RH  041%=      5-min Rain = 0
KSDS 121505Z 31003KT 24/10 A3011 RMK A01 T02420097  RH  040%=      5-min Rain = 0
KSDS 121510Z 32003KT 25/10 A3011 RMK A01 T02490096  RH  039%=      5-min Rain = 0
KSDS 121515Z 31004KT 25/09 A3011 RMK A01 T02540091  RH  036%=      5-min Rain = 0
KSDS 121520Z 30004KT 26/09 A3011 RMK A01 T02550090  RH  036%=      5-min Rain = 0
KSDS 121525Z 30004KT 26/09 A3011 RMK A01 T02610088  RH  034%=      5-min Rain = 0
KSDS 121530Z 31003KT 26/09 A3011 RMK A01 T02630088  RH  034%=      5-min Rain = 0
KSDS 121535Z 32003KT 27/09 A3011 RMK A01 T02660085  RH  032%=      5-min Rain = 0
KSDS 121540Z 32004KT 27/08 A3011 RMK A01 T02730081  RH  030%=      5-min Rain = 0
KSDS 121545Z 30004KT 27/08 A3011 RMK A01 T02740081  RH  030%=      5-min Rain = 0
KSDS 121550Z 29005KT 28/08 A3011 RMK A01 T02760083  RH  030%=      5-min Rain = 0
KSDS 121555Z 30006KT 28/08 A3011 RMK A01 T02770079  RH  029%=      5-min Rain = 0
KSDS 121600Z 28006KT 28/08 A3011 RMK A01 T02790081  RH  029%=      5-min Rain = 0
KSDS 121605Z 29006KT 28/08 A3011 RMK A01 T02830080  RH  028%=      5-min Rain = 0
KSDS 121610Z 29006KT 28/08 A3011 RMK A01 T02820080  RH  028%=      5-min Rain = 0
KSDS 121615Z 29006KT 28/08 A3011 RMK A01 T02840080  RH  028%=      5-min Rain = 0
KSDS 121620Z 28006KT 29/08 A3011 RMK A01 T02890082  RH  028%=      5-min Rain = 0
KSDS 121625Z 31006KT 29/08 A3011 RMK A01 T02890080  RH  027%=      5-min Rain = 0
KSDS 121630Z 31006KT 29/08 A301 RMK A01 T02910079  RH  027%=      5-min Rain = 0
KSDS 121640Z 32008KT 29/08 A301 RMK A01 T02930078  RH  026%=      5-min Rain = 0
KSDS 121645Z 31006KT 29/08 A301 RMK A01 T02940077  RH  026%=      5-min Rain = 0
KSDS 121650Z 30007KT 30/08 A301 RMK A01 T03000078  RH  025%=      5-min Rain = 0
KSDS 121655Z 30005KT 30/08 A301 RMK A01 T02990077  RH  025%=      5-min Rain = 0
KSDS 121700Z 30006G12KT 30/07 A301 RMK A01 T03040074  RH  024%=      5-min Rain = 0
KSDS 121705Z 30005G11KT 31/08 A301 RMK A01 T03060075  RH  024%=      5-min Rain = 0
KSDS 121710Z 30007G12KT 31/07 A301 RMK A01 T03050072  RH  024%=      5-min Rain = 0
KSDS 121715Z 32006G11KT 31/07 A301 RMK A01 T03050071  RH  023%=      5-min Rain = 0
KSDS 121720Z 31007KT 31/07 A3009 RMK A01 T03080071  RH  023%=      5-min Rain = 0
KSDS 121725Z 29005G10KT 31/07 A3009 RMK A01 T03070073  RH  023%=      5-min Rain = 0
KSDS 121730Z 31004G10KT 31/07 A3009 RMK A01 T03100066  RH  022%=      5-min Rain = 0
KSDS 121735Z 30004G9KT 32/07 A3009 RMK A01 T03150070  RH  022%=      5-min Rain = 0
KSDS 121740Z 32004G10KT 32/07 A3009 RMK A01 T03150068  RH  022%=      5-min Rain = 0
KSDS 121745Z 34005KT 32/07 A3008 RMK A01 T03150066  RH  021%=      5-min Rain = 0
KSDS 121750Z 28006KT 32/07 A3008 RMK A01 T03180070  RH  022%=      5-min Rain = 0
KSDS 121755Z 32005G10KT 32/07 A3008 RMK A01 T03160066  RH  021%=      5-min Rain = 0
KSDS 121800Z 33006KT 31/06 A3008 RMK A01 T03140062  RH  021%=      5-min Rain = 0
KSDS 121805Z 32005KT 32/06 A3008 RMK A01 T03180057  RH  020%=      5-min Rain = 0
KSDS 121810Z 04003KT 32/06 A3007 RMK A01 T03190062  RH  020%=      5-min Rain = 0
KSDS 121815Z 34008KT 33/06 A3007 RMK A01 T03280061  RH  019%=      5-min Rain = 0
KSDS 121820Z 33006G11KT 33/06 A3007 RMK A01 T03300061  RH  019%=      5-min Rain = 0
KSDS 121825Z 33008KT 33/06 A3007 RMK A01 T03270058  RH  019%=      5-min Rain = 0
KSDS 121830Z 32006KT 33/06 A3007 RMK A01 T03250057  RH  019%=      5-min Rain = 0
KSDS 121835Z 27002KT 32/06 A3006 RMK A01 T03200056  RH  019%=      5-min Rain = 0
KSDS 121840Z 28003G10KT 32/06 A3006 RMK A01 T03220058  RH  020%=      5-min Rain = 0
KSDS 121845Z 27004KT 33/06 A3006 RMK A01 T03290062  RH  019%=      5-min Rain = 0
KSDS 121850Z 31005KT 33/06 A3005 RMK A01 T03260063  RH  020%=      5-min Rain = 0
KSDS 121855Z 28005KT 32/06 A3005 RMK A01 T03210061  RH  020%=      5-min Rain = 0
KSDS 121900Z 28006KT 33/06 A3005 RMK A01 T03260063  RH  020%=      5-min Rain = 0
KSDS 121905Z 29005G10KT 33/06 A3005 RMK A01 T03260062  RH  020%=      5-min Rain = 0
KSDS 121910Z 25005G10KT 33/06 A3005 RMK A01 T03260062  RH  020%=      5-min Rain = 0
KSDS 121915Z 25007KT 33/06 A3004 RMK A01 T03270062  RH  019%=      5-min Rain = 0
KSDS 121920Z 28005G10KT 33/06 A3004 RMK A01 T03310063  RH  019%=      5-min Rain = 0
KSDS 121925Z 33006G11KT 34/06 A3004 RMK A01 T03360062  RH  018%=      5-min Rain = 0
KSDS 121930Z 26007KT 34/06 A3004 RMK A01 T03370060  RH  018%=      5-min Rain = 0
KSDS 121935Z 26005KT 34/06 A3003 RMK A01 T03350056  RH  018%=      5-min Rain = 0
KSDS 121940Z 24005KT 33/05 A3003 RMK A01 T03330054  RH  018%=      5-min Rain = 0
KSDS 121945Z 30005KT 34/05 A3003 RMK A01 T03350051  RH  017%=      5-min Rain = 0
KSDS 121950Z 30005KT 33/05 A3003 RMK A01 T03330050  RH  017%=      5-min Rain = 0
KSDS 121955Z 29006KT 33/06 A3002 RMK A01 T03330055  RH  018%=      5-min Rain = 0
KSDS 122000Z 28005G10KT 33/06 A3002 RMK A01 T03300058  RH  019%=      5-min Rain = 0
KSDS 122005Z 30005KT 33/06 A3002 RMK A01 T03290057  RH  019%=      5-min Rain = 0
KSDS 122010Z 35006G12KT 34/06 A3001 RMK A01 T03380056  RH  018%=      5-min Rain = 0
KSDS 122015Z 07003KT 33/06 A3001 RMK A01 T03340057  RH  018%=      5-min Rain = 0
KSDS 122020Z 32005KT 33/06 A3001 RMK A01 T03320061  RH  019%=      5-min Rain = 0
KSDS 122025Z 35006KT 33/06 A3001 RMK A01 T03290060  RH  019%=      5-min Rain = 0
KSDS 122030Z 36007KT 32/06 A3001 RMK A01 T03230059  RH  019%=      5-min Rain = 0
KSDS 122035Z 35004G9KT 32/06 A30 RMK A01 T03200060  RH  020%=      5-min Rain = 0
KSDS 122040Z 33006KT 32/06 A30 RMK A01 T03190062  RH  020%=      5-min Rain = 0
KSDS 122045Z 36006G11KT 32/06 A30 RMK A01 T03150062  RH  021%=      5-min Rain = 0
KSDS 122050Z 36005KT 31/06 A30 RMK A01 T03140061  RH  021%=      5-min Rain = 0
KSDS 122055Z 33003KT 32/06 A30 RMK A01 T03150061  RH  021%=      5-min Rain = 0
KSDS 122100Z 34005KT 32/06 A2999 RMK A01 T03160064  RH  021%=      5-min Rain = 0
KSDS 122105Z 33005KT 32/06 A2999 RMK A01 T03170063  RH  021%=      5-min Rain = 0
KSDS 122110Z 36005KT 32/06 A2999 RMK A01 T03180063  RH  020%=      5-min Rain = 0
KSDS 122115Z 01006KT 32/06 A2999 RMK A01 T03170060  RH  020%=      5-min Rain = 0
KSDS 122120Z 01006KT 32/06 A2999 RMK A01 T03160062  RH  021%=      5-min Rain = 0
KSDS 122125Z 34006KT 32/06 A2999 RMK A01 T03150061  RH  021%=      5-min Rain = 0
KSDS 122130Z 35006KT 32/06 A2998 RMK A01 T03150061  RH  021%=      5-min Rain = 0
KSDS 122135Z 00004KT 32/06 A2998 RMK A01 T03170061  RH  021%=      5-min Rain = 0
KSDS 122140Z 34005KT 32/06 A2998 RMK A01 T03200063  RH  020%=      5-min Rain = 0
KSDS 122145Z 34005KT 32/06 A2998 RMK A01 T03230064  RH  020%=      5-min Rain = 0
KSDS 122150Z 33005KT 32/06 A2997 RMK A01 T03240063  RH  020%=      5-min Rain = 0
KSDS 122155Z 34004KT 32/06 A2997 RMK A01 T03230062  RH  020%=      5-min Rain = 0
KSDS 122200Z 35005KT 32/06 A2997 RMK A01 T03220061  RH  020%=      5-min Rain = 0
KSDS 122205Z 32001KT 32/06 A2997 RMK A01 T03210060  RH  020%=      5-min Rain = 0
KSDS 122210Z 00002KT 32/06 A2997 RMK A01 T03220062  RH  020%=      5-min Rain = 0
KSDS 122215Z 32003KT 32/06 A2996 RMK A01 T03190063  RH  020%=      5-min Rain = 0
KSDS 122220Z 34003KT 32/06 A2996 RMK A01 T03180062  RH  020%=      5-min Rain = 0
KSDS 122225Z 35004KT 32/06 A2996 RMK A01 T03220063  RH  020%=      5-min Rain = 0
KSDS 122230Z 34003KT 32/06 A2996 RMK A01 T03190062  RH  020%=      5-min Rain = 0
KSDS 122235Z 36004KT 32/06 A2996 RMK A01 T03170062  RH  020%=      5-min Rain = 0
KSDS 122240Z 03001KT 32/06 A2996 RMK A01 T03170064  RH  021%=      5-min Rain = 0
KSDS 122245Z 01003KT 32/06 A2996 RMK A01 T03170064  RH  021%=      5-min Rain = 0
KSDS 122250Z 03005KT 32/06 A2996 RMK A01 T03150064  RH  021%=      5-min Rain = 0
KSDS 122255Z 02002KT 31/06 A2996 RMK A01 T03140061  RH  021%=      5-min Rain = 0
KSDS 122300Z 02003KT 31/07 A2996 RMK A01 T03140066  RH  021%=      5-min Rain = 0
KSDS 122305Z 01003KT 31/06 A2996 RMK A01 T03130064  RH  021%=      5-min Rain = 0
KSDS 122310Z 02004KT 31/07 A2996 RMK A01 T03120065  RH  022%=      5-min Rain = 0
KSDS 122315Z 03004KT 31/07 A2996 RMK A01 T03090065  RH  022%=      5-min Rain = 0
KSDS 122320Z 03004KT 31/07 A2995 RMK A01 T03080065  RH  022%=      5-min Rain = 0
KSDS 122325Z 05004KT 31/07 A2995 RMK A01 T03060067  RH  023%=      5-min Rain = 0
KSDS 122330Z 05005KT 31/06 A2995 RMK A01 T03050058  RH  021%=      5-min Rain = 0
KSDS 122335Z 04004KT 31/06 A2995 RMK A01 T03050056  RH  021%=      5-min Rain = 0
KSDS 122340Z 04004KT 30/06 A2995 RMK A01 T03040056  RH  021%=      5-min Rain = 0
KSDS 122345Z 04004KT 30/06 A2995 RMK A01 T03040059  RH  022%=      5-min Rain = 0
KSDS 122350Z 03004KT 30/06 A2995 RMK A01 T03030062  RH  022%=      5-min Rain = 0
KSDS 122355Z 03004KT 30/06 A2995 RMK A01 T03030064  RH  023%=      5-min Rain = 0
KSDS 130000Z 03004KT 30/07 A2995 RMK A01 T03020068  RH  023%=      5-min Rain = 0
KSDS 130005Z 03003KT 31/07 A2995 RMK A01 T03070068  RH  023%=      5-min Rain = 0
KSDS 130010Z 03004KT 31/07 A2995 RMK A01 T03070067  RH  023%=      5-min Rain = 0
KSDS 130015Z 02003KT 31/07 A2995 RMK A01 T03060071  RH  023%=      5-min Rain = 0
KSDS 130020Z 03004KT 30/07 A2995 RMK A01 T03040071  RH  024%=      5-min Rain = 0
KSDS 130025Z 03003KT 30/07 A2994 RMK A01 T03040074  RH  024%=      5-min Rain = 0
KSDS 130030Z 03003KT 30/08 A2994 RMK A01 T03020076  RH  025%=      5-min Rain = 0
KSDS 130035Z 03004KT 30/08 A2994 RMK A01 T02990078  RH  026%=      5-min Rain = 0
KSDS 130040Z 03004KT 30/08 A2994 RMK A01 T02950080  RH  026%=      5-min Rain = 0
KSDS 130045Z 03004KT 29/08 A2994 RMK A01 T02910081  RH  027%=      5-min Rain = 0
KSDS 130050Z 03004KT 29/08 A2994 RMK A01 T02860082  RH  028%=      5-min Rain = 0
KSDS 130055Z 03004KT 28/08 A2994 RMK A01 T02820082  RH  029%=      5-min Rain = 0
KSDS 130100Z 03004KT 28/08 A2994 RMK A01 T02780079  RH  029%=      5-min Rain = 0
KSDS 130105Z 03004KT 28/08 A2994 RMK A01 T02750077  RH  029%=      5-min Rain = 0
KSDS 130110Z 04004KT 27/08 A2994 RMK A01 T02730075  RH  029%=      5-min Rain = 0
KSDS 130115Z 04004KT 27/08 A2994 RMK A01 T02710075  RH  029%=      5-min Rain = 0
KSDS 130120Z 04004KT 27/08 A2994 RMK A01 T02690076  RH  030%=      5-min Rain = 0
KSDS 130125Z 03004KT 26/08 A2994 RMK A01 T02640077  RH  031%=      5-min Rain = 0
KSDS 130130Z 03004KT 26/08 A2994 RMK A01 T02590077  RH  032%=      5-min Rain = 0
KSDS 130135Z 02003KT 25/08 A2995 RMK A01 T02540077  RH  033%=      5-min Rain = 0
KSDS 130140Z 03003KT 25/08 A2995 RMK A01 T02510077  RH  033%=      5-min Rain = 0
KSDS 130145Z 04004KT 25/08 A2995 RMK A01 T02510077  RH  034%=      5-min Rain = 0
KSDS 130150Z 05004KT 25/08 A2995 RMK A01 T02500079  RH  034%=      5-min Rain = 0
KSDS 130155Z 05004KT 25/08 A2995 RMK A01 T02510080  RH  034%=      5-min Rain = 0
KSDS 130200Z 05005KT 25/08 A2995 RMK A01 T02510081  RH  035%=      5-min Rain = 0
KSDS 130205Z 06005KT 25/08 A2996 RMK A01 T02510083  RH  035%=      5-min Rain = 0
KSDS 130210Z 06005KT 25/08 A2996 RMK A01 T02510084  RH  035%=      5-min Rain = 0
KSDS 130215Z 06005KT 25/08 A2996 RMK A01 T02530080  RH  034%=      5-min Rain = 0
KSDS 130220Z 06005KT 25/08 A2996 RMK A01 T02520081  RH  034%=      5-min Rain = 0
KSDS 130225Z 07005KT 25/08 A2996 RMK A01 T02490082  RH  035%=      5-min Rain = 0
KSDS 130230Z 07005KT 25/08 A2996 RMK A01 T02470080  RH  035%=      5-min Rain = 0
KSDS 130235Z 07005KT 25/08 A2996 RMK A01 T02470079  RH  035%=      5-min Rain = 0
KSDS 130240Z 07005KT 25/08 A2996 RMK A01 T02480077  RH  034%=      5-min Rain = 0
KSDS 130245Z 07005KT 25/08 A2996 RMK A01 T02460076  RH  034%=      5-min Rain = 0
KSDS 130250Z 06005KT 24/08 A2996 RMK A01 T02440077  RH  035%=      5-min Rain = 0
KSDS 130255Z 06005KT 24/08 A2996 RMK A01 T02370082  RH  038%=      5-min Rain = 0
KSDS 130300Z 06006KT 23/08 A2996 RMK A01 T02310083  RH  039%=      5-min Rain = 0
KSDS 130305Z 06006KT 23/08 A2996 RMK A01 T02310081  RH  039%=      5-min Rain = 0
KSDS 130310Z 07006KT 23/08 A2996 RMK A01 T02290081  RH  039%=      5-min Rain = 0
KSDS 130315Z 07006KT 23/08 A2996 RMK A01 T02290080  RH  039%=      5-min Rain = 0
KSDS 130320Z 07006KT 23/08 A2996 RMK A01 T02320078  RH  038%=      5-min Rain = 0
KSDS 130325Z 07006KT 24/08 A2996 RMK A01 T02350076  RH  037%=      5-min Rain = 0
KSDS 130330Z 07006KT 24/08 A2996 RMK A01 T02360075  RH  036%=      5-min Rain = 0
KSDS 130335Z 07006KT 24/07 A2996 RMK A01 T02360073  RH  036%=      5-min Rain = 0
KSDS 130340Z 07005KT 24/07 A2996 RMK A01 T02370073  RH  036%=      5-min Rain = 0
KSDS 130345Z 07005KT 24/08 A2996 RMK A01 T02360075  RH  036%=      5-min Rain = 0
KSDS 130350Z 07004KT 23/09 A2996 RMK A01 T02270085  RH  041%=      5-min Rain = 0
KSDS 130355Z 07004KT 22/08 A2996 RMK A01 T02220084  RH  042%=      5-min Rain = 0
KSDS 130400Z 05003KT 21/09 A2997 RMK A01 T02140088  RH  045%=      5-min Rain = 0
KSDS 130405Z 06004KT 21/09 A2997 RMK A01 T02110087  RH  046%=      5-min Rain = 0
KSDS 130410Z 06004KT 22/08 A2997 RMK A01 T02150084  RH  044%=      5-min Rain = 0
KSDS 130415Z 07004KT 22/08 A2997 RMK A01 T02210083  RH  042%=      5-min Rain = 0
KSDS 130420Z 07003KT 23/08 A2997 RMK A01 T02270080  RH  039%=      5-min Rain = 0
KSDS 130425Z 07004KT 23/08 A2997 RMK A01 T02320077  RH  038%=      5-min Rain = 0
KSDS 130430Z 07005KT 24/08 A2997 RMK A01 T02350076  RH  037%=      5-min Rain = 0
KSDS 130435Z 06006KT 23/08 A2997 RMK A01 T02330079  RH  038%=      5-min Rain = 0
KSDS 130440Z 06008KT 23/08 A2997 RMK A01 T02300078  RH  038%=      5-min Rain = 0
KSDS 130445Z 06007KT 23/08 A2997 RMK A01 T02310076  RH  037%=      5-min Rain = 0
KSDS 130450Z 05006KT 23/08 A2997 RMK A01 T02270078  RH  039%=      5-min Rain = 0
KSDS 130455Z 06006KT 22/08 A2997 RMK A01 T02230080  RH  040%=      5-min Rain = 0

Page generated in 0.0226 seconds.